sensor_id;sensor_type;location;lat;lon;timestamp;P1;durP1;ratioP1;P2;durP2;ratioP2
19804;SDS011;10062;51.052;13.756;2023-05-10T00:01:18;3.37;;;1.60;;
19804;SDS011;10062;51.052;13.756;2023-05-10T00:03:50;6.73;;;2.23;;
19804;SDS011;10062;51.052;13.756;2023-05-10T00:06:22;4.53;;;2.10;;
19804;SDS011;10062;51.052;13.756;2023-05-10T00:08:54;3.93;;;2.00;;
19804;SDS011;10062;51.052;13.756;2023-05-10T00:11:27;4.73;;;1.90;;
19804;SDS011;10062;51.052;13.756;2023-05-10T00:13:58;3.07;;;2.00;;
19804;SDS011;10062;51.052;13.756;2023-05-10T00:16:30;4.13;;;2.17;;
19804;SDS011;10062;51.052;13.756;2023-05-10T00:19:01;3.97;;;1.90;;
19804;SDS011;10062;51.052;13.756;2023-05-10T00:21:33;5.50;;;2.23;;
19804;SDS011;10062;51.052;13.756;2023-05-10T00:24:05;4.37;;;1.63;;
19804;SDS011;10062;51.052;13.756;2023-05-10T00:26:38;3.93;;;1.97;;
19804;SDS011;10062;51.052;13.756;2023-05-10T00:29:10;4.53;;;2.40;;
19804;SDS011;10062;51.052;13.756;2023-05-10T00:31:42;5.17;;;2.00;;
19804;SDS011;10062;51.052;13.756;2023-05-10T00:34:13;10.10;;;2.13;;
19804;SDS011;10062;51.052;13.756;2023-05-10T00:36:45;4.47;;;2.10;;
19804;SDS011;10062;51.052;13.756;2023-05-10T00:39:17;4.83;;;1.97;;
19804;SDS011;10062;51.052;13.756;2023-05-10T00:41:50;3.83;;;1.87;;
19804;SDS011;10062;51.052;13.756;2023-05-10T00:44:21;5.00;;;2.10;;
19804;SDS011;10062;51.052;13.756;2023-05-10T00:46:53;2.70;;;1.60;;
19804;SDS011;10062;51.052;13.756;2023-05-10T00:49:25;3.40;;;2.30;;
19804;SDS011;10062;51.052;13.756;2023-05-10T00:51:57;3.40;;;2.20;;
19804;SDS011;10062;51.052;13.756;2023-05-10T00:54:30;6.00;;;2.20;;
19804;SDS011;10062;51.052;13.756;2023-05-10T00:57:03;6.23;;;2.60;;
19804;SDS011;10062;51.052;13.756;2023-05-10T00:59:35;4.27;;;2.00;;
19804;SDS011;10062;51.052;13.756;2023-05-10T01:02:07;4.77;;;2.20;;
19804;SDS011;10062;51.052;13.756;2023-05-10T01:04:39;4.03;;;2.30;;
19804;SDS011;10062;51.052;13.756;2023-05-10T01:07:11;3.50;;;1.70;;
19804;SDS011;10062;51.052;13.756;2023-05-10T01:09:42;4.77;;;2.13;;
19804;SDS011;10062;51.052;13.756;2023-05-10T01:12:16;3.27;;;1.80;;
19804;SDS011;10062;51.052;13.756;2023-05-10T01:14:48;4.60;;;2.20;;
19804;SDS011;10062;51.052;13.756;2023-05-10T01:17:20;5.73;;;2.40;;
19804;SDS011;10062;51.052;13.756;2023-05-10T01:19:52;3.73;;;2.03;;
19804;SDS011;10062;51.052;13.756;2023-05-10T01:22:30;3.30;;;1.87;;
19804;SDS011;10062;51.052;13.756;2023-05-10T01:25:32;5.67;;;2.20;;
19804;SDS011;10062;51.052;13.756;2023-05-10T01:28:42;4.87;;;1.80;;
19804;SDS011;10062;51.052;13.756;2023-05-10T01:31:54;3.77;;;2.03;;
19804;SDS011;10062;51.052;13.756;2023-05-10T01:34:40;4.57;;;1.90;;
19804;SDS011;10062;51.052;13.756;2023-05-10T01:37:20;5.73;;;2.10;;
19804;SDS011;10062;51.052;13.756;2023-05-10T01:39:58;3.57;;;2.03;;
19804;SDS011;10062;51.052;13.756;2023-05-10T01:42:36;3.47;;;1.90;;
19804;SDS011;10062;51.052;13.756;2023-05-10T01:45:13;5.27;;;2.07;;
19804;SDS011;10062;51.052;13.756;2023-05-10T01:47:52;3.53;;;1.80;;
19804;SDS011;10062;51.052;13.756;2023-05-10T01:50:30;4.83;;;1.90;;
19804;SDS011;10062;51.052;13.756;2023-05-10T01:53:05;4.37;;;2.00;;
19804;SDS011;10062;51.052;13.756;2023-05-10T01:55:39;4.00;;;2.20;;
19804;SDS011;10062;51.052;13.756;2023-05-10T01:58:15;4.77;;;2.07;;
19804;SDS011;10062;51.052;13.756;2023-05-10T02:00:51;5.00;;;2.60;;
19804;SDS011;10062;51.052;13.756;2023-05-10T02:03:26;3.17;;;1.90;;
19804;SDS011;10062;51.052;13.756;2023-05-10T02:05:59;4.07;;;2.00;;
19804;SDS011;10062;51.052;13.756;2023-05-10T02:08:31;3.80;;;2.07;;
19804;SDS011;10062;51.052;13.756;2023-05-10T02:11:07;3.10;;;1.60;;
19804;SDS011;10062;51.052;13.756;2023-05-10T02:13:40;3.33;;;1.83;;
19804;SDS011;10062;51.052;13.756;2023-05-10T02:16:13;3.73;;;1.87;;
19804;SDS011;10062;51.052;13.756;2023-05-10T02:18:48;3.50;;;1.80;;
19804;SDS011;10062;51.052;13.756;2023-05-10T02:21:22;3.20;;;2.03;;
19804;SDS011;10062;51.052;13.756;2023-05-10T02:23:55;5.57;;;2.70;;
19804;SDS011;10062;51.052;13.756;2023-05-10T02:26:28;3.80;;;2.10;;
19804;SDS011;10062;51.052;13.756;2023-05-10T02:29:00;3.53;;;1.80;;
19804;SDS011;10062;51.052;13.756;2023-05-10T02:31:34;3.30;;;2.20;;
19804;SDS011;10062;51.052;13.756;2023-05-10T02:34:10;6.97;;;2.20;;
19804;SDS011;10062;51.052;13.756;2023-05-10T02:36:42;3.80;;;1.93;;
19804;SDS011;10062;51.052;13.756;2023-05-10T02:39:14;7.07;;;2.13;;
19804;SDS011;10062;51.052;13.756;2023-05-10T02:41:49;3.87;;;1.90;;
19804;SDS011;10062;51.052;13.756;2023-05-10T02:44:21;4.00;;;2.20;;
19804;SDS011;10062;51.052;13.756;2023-05-10T02:46:54;4.37;;;1.80;;
19804;SDS011;10062;51.052;13.756;2023-05-10T02:49:28;3.27;;;1.80;;
19804;SDS011;10062;51.052;13.756;2023-05-10T02:52:00;5.00;;;2.27;;
19804;SDS011;10062;51.052;13.756;2023-05-10T02:54:37;3.80;;;2.20;;
19804;SDS011;10062;51.052;13.756;2023-05-10T02:57:15;7.30;;;2.33;;
19804;SDS011;10062;51.052;13.756;2023-05-10T02:59:49;3.37;;;2.10;;
19804;SDS011;10062;51.052;13.756;2023-05-10T03:02:21;3.63;;;2.13;;
19804;SDS011;10062;51.052;13.756;2023-05-10T03:04:54;4.37;;;2.67;;
19804;SDS011;10062;51.052;13.756;2023-05-10T03:07:26;4.97;;;2.20;;
19804;SDS011;10062;51.052;13.756;2023-05-10T03:09:58;4.63;;;2.17;;
19804;SDS011;10062;51.052;13.756;2023-05-10T03:12:32;3.40;;;2.10;;
19804;SDS011;10062;51.052;13.756;2023-05-10T03:15:13;3.50;;;1.90;;
19804;SDS011;10062;51.052;13.756;2023-05-10T03:17:54;3.50;;;2.10;;
19804;SDS011;10062;51.052;13.756;2023-05-10T03:20:31;4.53;;;2.10;;
19804;SDS011;10062;51.052;13.756;2023-05-10T03:23:07;3.73;;;2.20;;
19804;SDS011;10062;51.052;13.756;2023-05-10T03:25:43;3.93;;;2.10;;
19804;SDS011;10062;51.052;13.756;2023-05-10T03:28:16;3.57;;;1.80;;
19804;SDS011;10062;51.052;13.756;2023-05-10T03:30:49;3.10;;;1.90;;
19804;SDS011;10062;51.052;13.756;2023-05-10T03:33:23;5.03;;;1.97;;
19804;SDS011;10062;51.052;13.756;2023-05-10T03:35:56;3.53;;;2.13;;
19804;SDS011;10062;51.052;13.756;2023-05-10T03:38:30;3.70;;;2.00;;
19804;SDS011;10062;51.052;13.756;2023-05-10T03:41:02;3.83;;;1.80;;
19804;SDS011;10062;51.052;13.756;2023-05-10T03:43:33;6.97;;;2.03;;
19804;SDS011;10062;51.052;13.756;2023-05-10T03:46:05;3.23;;;1.90;;
19804;SDS011;10062;51.052;13.756;2023-05-10T03:48:38;3.97;;;2.10;;
19804;SDS011;10062;51.052;13.756;2023-05-10T03:51:12;7.73;;;3.20;;
19804;SDS011;10062;51.052;13.756;2023-05-10T03:53:44;3.70;;;2.20;;
19804;SDS011;10062;51.052;13.756;2023-05-10T03:56:15;3.80;;;2.43;;
19804;SDS011;10062;51.052;13.756;2023-05-10T03:58:49;4.93;;;2.17;;
19804;SDS011;10062;51.052;13.756;2023-05-10T04:01:21;5.10;;;2.30;;
19804;SDS011;10062;51.052;13.756;2023-05-10T04:03:52;4.03;;;2.07;;
19804;SDS011;10062;51.052;13.756;2023-05-10T04:06:25;3.93;;;2.00;;
19804;SDS011;10062;51.052;13.756;2023-05-10T04:08:58;5.43;;;3.00;;
19804;SDS011;10062;51.052;13.756;2023-05-10T04:11:33;3.50;;;2.07;;
19804;SDS011;10062;51.052;13.756;2023-05-10T04:14:05;4.10;;;2.17;;
19804;SDS011;10062;51.052;13.756;2023-05-10T04:16:37;7.00;;;2.03;;
19804;SDS011;10062;51.052;13.756;2023-05-10T04:19:09;5.60;;;2.13;;
19804;SDS011;10062;51.052;13.756;2023-05-10T04:21:43;3.97;;;2.13;;
19804;SDS011;10062;51.052;13.756;2023-05-10T04:24:14;5.27;;;2.43;;
19804;SDS011;10062;51.052;13.756;2023-05-10T04:26:46;3.07;;;1.90;;
19804;SDS011;10062;51.052;13.756;2023-05-10T04:29:18;4.40;;;2.30;;
19804;SDS011;10062;51.052;13.756;2023-05-10T04:31:50;3.83;;;1.60;;
19804;SDS011;10062;51.052;13.756;2023-05-10T04:34:21;6.80;;;2.50;;
19804;SDS011;10062;51.052;13.756;2023-05-10T04:36:54;3.57;;;2.00;;
19804;SDS011;10062;51.052;13.756;2023-05-10T04:39:26;4.20;;;2.13;;
19804;SDS011;10062;51.052;13.756;2023-05-10T04:41:58;3.63;;;2.00;;
19804;SDS011;10062;51.052;13.756;2023-05-10T04:44:29;3.27;;;1.97;;
19804;SDS011;10062;51.052;13.756;2023-05-10T04:47:02;5.20;;;2.43;;
19804;SDS011;10062;51.052;13.756;2023-05-10T04:49:33;5.50;;;2.00;;
19804;SDS011;10062;51.052;13.756;2023-05-10T04:52:06;6.17;;;1.90;;
19804;SDS011;10062;51.052;13.756;2023-05-10T04:54:38;5.67;;;1.90;;
19804;SDS011;10062;51.052;13.756;2023-05-10T04:57:10;3.10;;;2.00;;
19804;SDS011;10062;51.052;13.756;2023-05-10T04:59:42;5.93;;;2.40;;
19804;SDS011;10062;51.052;13.756;2023-05-10T05:02:14;2.53;;;1.53;;
19804;SDS011;10062;51.052;13.756;2023-05-10T05:04:47;4.80;;;1.93;;
19804;SDS011;10062;51.052;13.756;2023-05-10T05:07:21;2.47;;;1.80;;
19804;SDS011;10062;51.052;13.756;2023-05-10T05:09:53;2.47;;;1.57;;
19804;SDS011;10062;51.052;13.756;2023-05-10T05:12:25;4.87;;;1.53;;
19804;SDS011;10062;51.052;13.756;2023-05-10T05:14:57;4.20;;;2.20;;
19804;SDS011;10062;51.052;13.756;2023-05-10T05:17:31;3.87;;;1.90;;
19804;SDS011;10062;51.052;13.756;2023-05-10T05:20:03;3.73;;;2.00;;
19804;SDS011;10062;51.052;13.756;2023-05-10T05:22:38;4.50;;;1.73;;
19804;SDS011;10062;51.052;13.756;2023-05-10T05:25:10;3.23;;;1.90;;
19804;SDS011;10062;51.052;13.756;2023-05-10T05:27:43;3.27;;;1.60;;
19804;SDS011;10062;51.052;13.756;2023-05-10T05:30:15;3.10;;;1.67;;
19804;SDS011;10062;51.052;13.756;2023-05-10T05:32:47;3.53;;;2.20;;
19804;SDS011;10062;51.052;13.756;2023-05-10T05:35:18;3.80;;;1.80;;
19804;SDS011;10062;51.052;13.756;2023-05-10T05:37:53;6.93;;;2.13;;
19804;SDS011;10062;51.052;13.756;2023-05-10T05:40:25;4.97;;;1.93;;
19804;SDS011;10062;51.052;13.756;2023-05-10T05:42:57;5.17;;;1.97;;
19804;SDS011;10062;51.052;13.756;2023-05-10T05:45:29;4.80;;;2.20;;
19804;SDS011;10062;51.052;13.756;2023-05-10T05:48:01;3.73;;;2.03;;
19804;SDS011;10062;51.052;13.756;2023-05-10T05:50:33;4.83;;;2.07;;
19804;SDS011;10062;51.052;13.756;2023-05-10T05:53:06;4.37;;;1.87;;
19804;SDS011;10062;51.052;13.756;2023-05-10T05:55:38;3.23;;;1.70;;
19804;SDS011;10062;51.052;13.756;2023-05-10T05:58:11;3.73;;;2.00;;
19804;SDS011;10062;51.052;13.756;2023-05-10T06:00:44;4.30;;;1.70;;
19804;SDS011;10062;51.052;13.756;2023-05-10T06:03:16;5.50;;;2.20;;
19804;SDS011;10062;51.052;13.756;2023-05-10T06:05:48;5.23;;;2.13;;
19804;SDS011;10062;51.052;13.756;2023-05-10T06:08:23;3.00;;;1.70;;
19804;SDS011;10062;51.052;13.756;2023-05-10T06:10:56;4.40;;;1.70;;
19804;SDS011;10062;51.052;13.756;2023-05-10T06:13:28;3.03;;;1.73;;
19804;SDS011;10062;51.052;13.756;2023-05-10T06:16:02;3.13;;;1.70;;
19804;SDS011;10062;51.052;13.756;2023-05-10T06:18:34;4.43;;;2.30;;
19804;SDS011;10062;51.052;13.756;2023-05-10T06:21:07;10.57;;;2.57;;
19804;SDS011;10062;51.052;13.756;2023-05-10T06:23:40;3.57;;;1.73;;
19804;SDS011;10062;51.052;13.756;2023-05-10T06:26:12;3.53;;;1.90;;
19804;SDS011;10062;51.052;13.756;2023-05-10T06:28:44;4.70;;;2.00;;
19804;SDS011;10062;51.052;13.756;2023-05-10T06:31:16;6.77;;;2.00;;
19804;SDS011;10062;51.052;13.756;2023-05-10T06:33:47;5.23;;;2.33;;
19804;SDS011;10062;51.052;13.756;2023-05-10T06:36:19;6.53;;;2.30;;
19804;SDS011;10062;51.052;13.756;2023-05-10T06:38:53;6.50;;;2.20;;
19804;SDS011;10062;51.052;13.756;2023-05-10T06:41:24;2.93;;;1.60;;
19804;SDS011;10062;51.052;13.756;2023-05-10T06:43:56;11.30;;;2.80;;
19804;SDS011;10062;51.052;13.756;2023-05-10T06:46:28;5.40;;;2.73;;
19804;SDS011;10062;51.052;13.756;2023-05-10T06:48:59;5.67;;;2.30;;
19804;SDS011;10062;51.052;13.756;2023-05-10T06:51:31;2.73;;;1.60;;
19804;SDS011;10062;51.052;13.756;2023-05-10T06:54:04;4.77;;;2.40;;
19804;SDS011;10062;51.052;13.756;2023-05-10T06:56:36;6.07;;;2.50;;
19804;SDS011;10062;51.052;13.756;2023-05-10T06:59:08;4.17;;;2.53;;
19804;SDS011;10062;51.052;13.756;2023-05-10T07:01:40;4.20;;;1.90;;
19804;SDS011;10062;51.052;13.756;2023-05-10T07:04:11;6.70;;;2.17;;
19804;SDS011;10062;51.052;13.756;2023-05-10T07:06:43;3.33;;;1.90;;
19804;SDS011;10062;51.052;13.756;2023-05-10T07:09:17;4.37;;;2.20;;
19804;SDS011;10062;51.052;13.756;2023-05-10T07:11:49;3.37;;;1.80;;
19804;SDS011;10062;51.052;13.756;2023-05-10T07:14:21;6.00;;;2.50;;
19804;SDS011;10062;51.052;13.756;2023-05-10T07:16:52;4.37;;;2.20;;
19804;SDS011;10062;51.052;13.756;2023-05-10T07:19:25;4.20;;;2.13;;
19804;SDS011;10062;51.052;13.756;2023-05-10T07:21:57;3.40;;;1.80;;
19804;SDS011;10062;51.052;13.756;2023-05-10T07:24:30;2.83;;;1.73;;
19804;SDS011;10062;51.052;13.756;2023-05-10T07:27:03;4.30;;;2.30;;
19804;SDS011;10062;51.052;13.756;2023-05-10T07:29:34;5.40;;;2.57;;
19804;SDS011;10062;51.052;13.756;2023-05-10T07:32:07;6.77;;;1.93;;
19804;SDS011;10062;51.052;13.756;2023-05-10T07:34:38;8.27;;;2.23;;
19804;SDS011;10062;51.052;13.756;2023-05-10T07:37:10;3.63;;;2.30;;
19804;SDS011;10062;51.052;13.756;2023-05-10T07:39:43;4.03;;;2.30;;
19804;SDS011;10062;51.052;13.756;2023-05-10T07:42:15;4.57;;;2.20;;
19804;SDS011;10062;51.052;13.756;2023-05-10T07:44:46;5.80;;;2.30;;
19804;SDS011;10062;51.052;13.756;2023-05-10T07:47:18;7.53;;;2.57;;
19804;SDS011;10062;51.052;13.756;2023-05-10T07:49:50;5.07;;;2.60;;
19804;SDS011;10062;51.052;13.756;2023-05-10T07:52:21;4.37;;;2.30;;
19804;SDS011;10062;51.052;13.756;2023-05-10T07:54:54;8.60;;;2.20;;
19804;SDS011;10062;51.052;13.756;2023-05-10T07:57:26;16.70;;;2.87;;
19804;SDS011;10062;51.052;13.756;2023-05-10T07:59:58;3.47;;;2.07;;
19804;SDS011;10062;51.052;13.756;2023-05-10T08:02:30;5.77;;;2.20;;
19804;SDS011;10062;51.052;13.756;2023-05-10T08:05:02;6.57;;;2.50;;
19804;SDS011;10062;51.052;13.756;2023-05-10T08:07:35;3.37;;;2.10;;
19804;SDS011;10062;51.052;13.756;2023-05-10T08:10:08;8.40;;;2.40;;
19804;SDS011;10062;51.052;13.756;2023-05-10T08:12:41;8.40;;;2.53;;
19804;SDS011;10062;51.052;13.756;2023-05-10T08:15:13;3.40;;;2.10;;
19804;SDS011;10062;51.052;13.756;2023-05-10T08:17:44;8.33;;;2.23;;
19804;SDS011;10062;51.052;13.756;2023-05-10T08:20:17;4.90;;;2.50;;
19804;SDS011;10062;51.052;13.756;2023-05-10T08:22:49;4.20;;;2.23;;
19804;SDS011;10062;51.052;13.756;2023-05-10T08:25:22;4.97;;;2.50;;
19804;SDS011;10062;51.052;13.756;2023-05-10T08:27:54;5.17;;;2.67;;
19804;SDS011;10062;51.052;13.756;2023-05-10T08:30:25;5.63;;;2.50;;
19804;SDS011;10062;51.052;13.756;2023-05-10T08:32:57;4.43;;;2.40;;
19804;SDS011;10062;51.052;13.756;2023-05-10T08:35:28;4.20;;;2.40;;
19804;SDS011;10062;51.052;13.756;2023-05-10T08:38:00;5.22;;;3.03;;
19804;SDS011;10062;51.052;13.756;2023-05-10T08:40:34;7.78;;;2.55;;
19804;SDS011;10062;51.052;13.756;2023-05-10T08:43:08;4.68;;;2.40;;
19804;SDS011;10062;51.052;13.756;2023-05-10T08:45:41;3.75;;;2.17;;
19804;SDS011;10062;51.052;13.756;2023-05-10T08:48:15;5.32;;;2.90;;
19804;SDS011;10062;51.052;13.756;2023-05-10T08:50:47;6.03;;;2.35;;
19804;SDS011;10062;51.052;13.756;2023-05-10T08:53:23;5.03;;;2.30;;
19804;SDS011;10062;51.052;13.756;2023-05-10T08:55:58;7.57;;;2.50;;
19804;SDS011;10062;51.052;13.756;2023-05-10T08:58:30;6.18;;;2.70;;
19804;SDS011;10062;51.052;13.756;2023-05-10T09:01:02;6.90;;;2.80;;
19804;SDS011;10062;51.052;13.756;2023-05-10T09:03:33;4.05;;;2.30;;
19804;SDS011;10062;51.052;13.756;2023-05-10T09:06:06;7.13;;;2.67;;
19804;SDS011;10062;51.052;13.756;2023-05-10T09:08:38;7.00;;;2.78;;
19804;SDS011;10062;51.052;13.756;2023-05-10T09:11:12;3.90;;;2.30;;
19804;SDS011;10062;51.052;13.756;2023-05-10T09:13:44;4.63;;;2.53;;
19804;SDS011;10062;51.052;13.756;2023-05-10T09:16:16;6.95;;;2.72;;
19804;SDS011;10062;51.052;13.756;2023-05-10T09:18:48;5.38;;;2.83;;
19804;SDS011;10062;51.052;13.756;2023-05-10T09:21:20;5.00;;;2.55;;
19804;SDS011;10062;51.052;13.756;2023-05-10T09:23:52;5.13;;;2.63;;
19804;SDS011;10062;51.052;13.756;2023-05-10T09:26:25;6.43;;;2.80;;
19804;SDS011;10062;51.052;13.756;2023-05-10T09:28:57;4.28;;;2.80;;
19804;SDS011;10062;51.052;13.756;2023-05-10T09:31:46;5.63;;;2.60;;
19804;SDS011;10062;51.052;13.756;2023-05-10T09:34:22;5.00;;;2.97;;
19804;SDS011;10062;51.052;13.756;2023-05-10T09:37:00;3.47;;;2.22;;
19804;SDS011;10062;51.052;13.756;2023-05-10T09:39:34;3.65;;;2.50;;
19804;SDS011;10062;51.052;13.756;2023-05-10T09:42:08;6.35;;;2.80;;
19804;SDS011;10062;51.052;13.756;2023-05-10T09:44:41;7.03;;;2.80;;
19804;SDS011;10062;51.052;13.756;2023-05-10T09:47:16;8.48;;;3.20;;
19804;SDS011;10062;51.052;13.756;2023-05-10T09:49:49;7.80;;;2.65;;
19804;SDS011;10062;51.052;13.756;2023-05-10T09:52:21;4.80;;;2.67;;
19804;SDS011;10062;51.052;13.756;2023-05-10T09:54:53;6.10;;;3.05;;
19804;SDS011;10062;51.052;13.756;2023-05-10T09:57:26;5.65;;;2.60;;
19804;SDS011;10062;51.052;13.756;2023-05-10T09:59:59;6.18;;;2.53;;
19804;SDS011;10062;51.052;13.756;2023-05-10T10:02:44;5.32;;;2.70;;
19804;SDS011;10062;51.052;13.756;2023-05-10T10:05:17;7.20;;;3.03;;
19804;SDS011;10062;51.052;13.756;2023-05-10T10:07:49;4.25;;;2.55;;
19804;SDS011;10062;51.052;13.756;2023-05-10T10:10:22;6.47;;;2.90;;
19804;SDS011;10062;51.052;13.756;2023-05-10T10:12:55;6.05;;;2.45;;
19804;SDS011;10062;51.052;13.756;2023-05-10T10:15:26;4.65;;;2.50;;
19804;SDS011;10062;51.052;13.756;2023-05-10T10:17:58;5.07;;;2.33;;
19804;SDS011;10062;51.052;13.756;2023-05-10T10:20:30;4.57;;;3.17;;
19804;SDS011;10062;51.052;13.756;2023-05-10T10:23:02;4.55;;;2.67;;
19804;SDS011;10062;51.052;13.756;2023-05-10T10:25:34;4.18;;;2.60;;
19804;SDS011;10062;51.052;13.756;2023-05-10T10:28:10;4.63;;;2.60;;
19804;SDS011;10062;51.052;13.756;2023-05-10T10:30:52;6.53;;;2.22;;
19804;SDS011;10062;51.052;13.756;2023-05-10T10:33:38;4.45;;;2.55;;
19804;SDS011;10062;51.052;13.756;2023-05-10T10:36:19;5.93;;;2.92;;
19804;SDS011;10062;51.052;13.756;2023-05-10T10:38:55;6.78;;;3.05;;
19804;SDS011;10062;51.052;13.756;2023-05-10T10:41:30;4.60;;;2.88;;
19804;SDS011;10062;51.052;13.756;2023-05-10T10:46:58;6.88;;;2.88;;
19804;SDS011;10062;51.052;13.756;2023-05-10T10:49:32;6.07;;;2.67;;
19804;SDS011;10062;51.052;13.756;2023-05-10T10:52:14;4.50;;;2.47;;
19804;SDS011;10062;51.052;13.756;2023-05-10T10:54:51;6.35;;;2.95;;
19804;SDS011;10062;51.052;13.756;2023-05-10T10:57:24;4.85;;;2.47;;
19804;SDS011;10062;51.052;13.756;2023-05-10T11:03:08;7.47;;;3.10;;
19804;SDS011;10062;51.052;13.756;2023-05-10T11:05:43;4.80;;;2.60;;
19804;SDS011;10062;51.052;13.756;2023-05-10T11:08:17;3.65;;;2.33;;
19804;SDS011;10062;51.052;13.756;2023-05-10T11:10:51;9.15;;;2.88;;
19804;SDS011;10062;51.052;13.756;2023-05-10T11:13:34;5.70;;;2.80;;
19804;SDS011;10062;51.052;13.756;2023-05-10T11:16:10;6.47;;;2.53;;
19804;SDS011;10062;51.052;13.756;2023-05-10T11:18:56;7.13;;;2.90;;
19804;SDS011;10062;51.052;13.756;2023-05-10T11:21:30;3.35;;;2.50;;
19804;SDS011;10062;51.052;13.756;2023-05-10T11:24:08;4.43;;;2.63;;
19804;SDS011;10062;51.052;13.756;2023-05-10T11:26:44;4.47;;;2.75;;
19804;SDS011;10062;51.052;13.756;2023-05-10T11:29:16;6.28;;;2.67;;
19804;SDS011;10062;51.052;13.756;2023-05-10T11:31:48;8.02;;;3.08;;
19804;SDS011;10062;51.052;13.756;2023-05-10T11:34:25;5.75;;;2.97;;
19804;SDS011;10062;51.052;13.756;2023-05-10T11:36:57;5.95;;;3.30;;
19804;SDS011;10062;51.052;13.756;2023-05-10T11:39:30;4.90;;;2.70;;
19804;SDS011;10062;51.052;13.756;2023-05-10T11:42:03;4.50;;;3.03;;
19804;SDS011;10062;51.052;13.756;2023-05-10T11:44:35;5.05;;;2.88;;
19804;SDS011;10062;51.052;13.756;2023-05-10T11:47:07;5.57;;;2.88;;
19804;SDS011;10062;51.052;13.756;2023-05-10T11:49:40;6.07;;;3.17;;
19804;SDS011;10062;51.052;13.756;2023-05-10T11:52:14;5.53;;;2.78;;
19804;SDS011;10062;51.052;13.756;2023-05-10T11:54:50;6.63;;;3.10;;
19804;SDS011;10062;51.052;13.756;2023-05-10T11:57:25;6.03;;;2.75;;
19804;SDS011;10062;51.052;13.756;2023-05-10T11:59:58;6.43;;;3.35;;
19804;SDS011;10062;51.052;13.756;2023-05-10T12:02:30;7.63;;;3.30;;
19804;SDS011;10062;51.052;13.756;2023-05-10T12:05:03;5.18;;;2.80;;
19804;SDS011;10062;51.052;13.756;2023-05-10T12:07:36;6.40;;;3.47;;
19804;SDS011;10062;51.052;13.756;2023-05-10T12:10:08;5.28;;;3.00;;
19804;SDS011;10062;51.052;13.756;2023-05-10T12:12:42;4.93;;;2.97;;
19804;SDS011;10062;51.052;13.756;2023-05-10T12:15:17;6.82;;;3.00;;
19804;SDS011;10062;51.052;13.756;2023-05-10T12:17:50;4.97;;;2.88;;
19804;SDS011;10062;51.052;13.756;2023-05-10T12:20:24;5.28;;;2.60;;
19804;SDS011;10062;51.052;13.756;2023-05-10T12:22:58;6.40;;;2.70;;
19804;SDS011;10062;51.052;13.756;2023-05-10T12:25:33;8.82;;;3.17;;
19804;SDS011;10062;51.052;13.756;2023-05-10T12:28:06;6.75;;;3.30;;
19804;SDS011;10062;51.052;13.756;2023-05-10T12:30:39;5.82;;;2.90;;
19804;SDS011;10062;51.052;13.756;2023-05-10T12:33:11;6.65;;;2.67;;
19804;SDS011;10062;51.052;13.756;2023-05-10T12:35:46;5.88;;;2.67;;
19804;SDS011;10062;51.052;13.756;2023-05-10T12:38:24;6.30;;;3.00;;
19804;SDS011;10062;51.052;13.756;2023-05-10T12:40:57;8.10;;;3.10;;
19804;SDS011;10062;51.052;13.756;2023-05-10T12:43:29;7.03;;;2.83;;
19804;SDS011;10062;51.052;13.756;2023-05-10T12:46:05;6.55;;;3.30;;
19804;SDS011;10062;51.052;13.756;2023-05-10T12:48:37;5.43;;;2.78;;
19804;SDS011;10062;51.052;13.756;2023-05-10T12:51:11;5.35;;;2.72;;
19804;SDS011;10062;51.052;13.756;2023-05-10T12:53:45;4.47;;;2.70;;
19804;SDS011;10062;51.052;13.756;2023-05-10T12:56:17;4.88;;;2.90;;
19804;SDS011;10062;51.052;13.756;2023-05-10T12:58:50;5.15;;;2.90;;
19804;SDS011;10062;51.052;13.756;2023-05-10T13:01:21;9.57;;;3.35;;
19804;SDS011;10062;51.052;13.756;2023-05-10T13:03:53;6.35;;;2.65;;
19804;SDS011;10062;51.052;13.756;2023-05-10T13:06:26;4.30;;;2.67;;
19804;SDS011;10062;51.052;13.756;2023-05-10T13:08:58;5.65;;;3.95;;
19804;SDS011;10062;51.052;13.756;2023-05-10T13:11:29;4.75;;;3.10;;
19804;SDS011;10062;51.052;13.756;2023-05-10T13:14:01;7.00;;;3.28;;
19804;SDS011;10062;51.052;13.756;2023-05-10T13:16:33;7.63;;;4.38;;
19804;SDS011;10062;51.052;13.756;2023-05-10T13:19:04;7.35;;;5.25;;
19804;SDS011;10062;51.052;13.756;2023-05-10T13:21:38;6.57;;;3.58;;
19804;SDS011;10062;51.052;13.756;2023-05-10T13:24:11;5.70;;;3.00;;
19804;SDS011;10062;51.052;13.756;2023-05-10T13:26:43;7.57;;;2.88;;
19804;SDS011;10062;51.052;13.756;2023-05-10T13:29:15;7.15;;;2.80;;
19804;SDS011;10062;51.052;13.756;2023-05-10T13:31:48;4.45;;;3.03;;
19804;SDS011;10062;51.052;13.756;2023-05-10T13:34:19;5.22;;;2.75;;
19804;SDS011;10062;51.052;13.756;2023-05-10T13:36:52;9.52;;;2.70;;
19804;SDS011;10062;51.052;13.756;2023-05-10T13:39:26;4.80;;;2.78;;
19804;SDS011;10062;51.052;13.756;2023-05-10T13:41:59;7.75;;;2.35;;
19804;SDS011;10062;51.052;13.756;2023-05-10T13:44:31;4.90;;;2.90;;
19804;SDS011;10062;51.052;13.756;2023-05-10T13:47:03;13.90;;;2.53;;
19804;SDS011;10062;51.052;13.756;2023-05-10T13:49:35;4.22;;;2.58;;
19804;SDS011;10062;51.052;13.756;2023-05-10T13:52:08;7.30;;;2.50;;
19804;SDS011;10062;51.052;13.756;2023-05-10T13:54:40;4.65;;;2.38;;
19804;SDS011;10062;51.052;13.756;2023-05-10T13:57:12;6.93;;;3.15;;
19804;SDS011;10062;51.052;13.756;2023-05-10T13:59:43;7.00;;;2.72;;
19804;SDS011;10062;51.052;13.756;2023-05-10T14:02:15;6.97;;;2.88;;
19804;SDS011;10062;51.052;13.756;2023-05-10T14:04:47;5.18;;;2.53;;
19804;SDS011;10062;51.052;13.756;2023-05-10T14:07:20;8.60;;;2.42;;
19804;SDS011;10062;51.052;13.756;2023-05-10T14:09:52;6.03;;;2.70;;
19804;SDS011;10062;51.052;13.756;2023-05-10T14:12:23;4.22;;;2.47;;
19804;SDS011;10062;51.052;13.756;2023-05-10T14:14:55;4.35;;;2.47;;
19804;SDS011;10062;51.052;13.756;2023-05-10T14:17:28;3.92;;;2.40;;
19804;SDS011;10062;51.052;13.756;2023-05-10T14:19:59;4.18;;;2.53;;
19804;SDS011;10062;51.052;13.756;2023-05-10T14:22:32;5.68;;;2.30;;
19804;SDS011;10062;51.052;13.756;2023-05-10T14:25:04;6.05;;;2.40;;
19804;SDS011;10062;51.052;13.756;2023-05-10T14:27:36;9.27;;;2.60;;
19804;SDS011;10062;51.052;13.756;2023-05-10T14:30:08;3.65;;;2.35;;
19804;SDS011;10062;51.052;13.756;2023-05-10T14:32:40;8.25;;;2.80;;
19804;SDS011;10062;51.052;13.756;2023-05-10T14:35:12;5.22;;;2.42;;
19804;SDS011;10062;51.052;13.756;2023-05-10T14:37:45;3.42;;;2.08;;
19804;SDS011;10062;51.052;13.756;2023-05-10T14:40:17;9.40;;;2.85;;
19804;SDS011;10062;51.052;13.756;2023-05-10T14:42:49;3.63;;;2.13;;
19804;SDS011;10062;51.052;13.756;2023-05-10T14:45:22;3.97;;;2.40;;
19804;SDS011;10062;51.052;13.756;2023-05-10T14:47:54;4.63;;;2.22;;
19804;SDS011;10062;51.052;13.756;2023-05-10T14:50:26;5.93;;;2.92;;
19804;SDS011;10062;51.052;13.756;2023-05-10T14:52:59;5.68;;;2.90;;
19804;SDS011;10062;51.052;13.756;2023-05-10T14:55:30;7.75;;;3.95;;
19804;SDS011;10062;51.052;13.756;2023-05-10T14:58:03;5.93;;;2.45;;
19804;SDS011;10062;51.052;13.756;2023-05-10T15:00:34;6.82;;;3.03;;
19804;SDS011;10062;51.052;13.756;2023-05-10T15:03:06;5.63;;;2.45;;
19804;SDS011;10062;51.052;13.756;2023-05-10T15:05:38;5.63;;;2.65;;
19804;SDS011;10062;51.052;13.756;2023-05-10T15:08:11;7.05;;;2.55;;
19804;SDS011;10062;51.052;13.756;2023-05-10T15:10:42;7.22;;;4.10;;
19804;SDS011;10062;51.052;13.756;2023-05-10T15:13:14;6.35;;;3.15;;
19804;SDS011;10062;51.052;13.756;2023-05-10T15:15:45;5.03;;;3.00;;